Date,TemperatureHighF,TemperatureAvgF,TemperatureLowF,DewpointHighF,DewpointAvgF,DewpointLowF,HumidityHigh,HumidityAvg,HumidityLow,PressureMaxIn,PressureMinIn,WindSpeedMaxMPH,WindSpeedAvgMPH,GustSpeedMaxMPH,PrecipitationSumIn
2013-2-1,53,32,15,24,17,11,88,61,20,0.00,40.00,24,8,32,0.00
2013-2-2,56,34,19,23,15,7,88,53,17,0.00,40.00,19,7,23,0.00
2013-2-3,50,32,17,19,15,6,79,54,26,0.00,40.00,11,4,14,0.00
2013-2-4,60,34,15,20,10,4,80,45,11,0.00,40.00,16,8,21,0.00
2013-2-5,56,37,17,20,15,11,79,44,21,0.00,40.00,18,9,23,0.00
2013-2-6,56,42,28,23,18,13,64,40,25,0.00,40.00,19,8,28,0.00
2013-2-7,51,33,19,23,15,6,85,53,21,0.00,40.00,10,5,12,0.00
2013-2-8,54,32,17,20,15,10,79,52,24,0.00,40.00,17,5,21,0.00
2013-2-9,41,28,14,22,17,10,84,65,41,0.00,40.00,18,7,24,0.00
2013-2-10,37,28,15,22,13,5,78,54,35,0.00,40.00,32,18,41,0.00
2013-2-11,33,22,8,18,10,4,84,62,38,0.00,40.00,16,6,25,0.00
2013-2-12,44,24,6,14,6,0,85,53,18,0.00,40.00,16,6,23,0.00
2013-2-13,53,31,10,22,10,4,75,45,18,0.00,40.00,24,9,35,0.00
2013-2-14,32,26,18,26,15,6,85,63,41,0.00,40.00,22,9,29,0.00
2013-2-15,37,26,17,20,16,9,89,67,35,0.00,40.00,27,8,34,0.00
2013-2-16,58,29,13,21,12,4,83,57,16,0.00,40.00,12,5,17,0.00
2013-2-17,66,39,20,22,11,-3,64,40,10,0.00,40.00,29,10,41,0.00
2013-2-18,44,30,12,19,12,-1,77,49,20,0.00,40.00,25,13,34,0.00
2013-2-19,45,28,7,17,10,3,87,52,24,0.00,40.00,19,10,25,0.00
2013-2-20,30,24,16,27,17,10,89,74,55,0.00,40.00,19,11,25,0.00
2013-2-21,25,18,14,17,12,8,87,76,52,0.00,40.00,14,7,19,0.00
2013-2-22,30,16,-2,16,7,-7,85,68,44,0.00,40.00,12,6,14,0.00
2013-2-23,39,23,4,21,10,-2,80,60,35,0.00,40.00,14,6,18,0.00
2013-2-24,32,29,24,28,24,16,88,81,60,0.00,40.00,21,13,31,0.00
2013-2-25,36,18,3,17,7,-4,82,65,35,0.00,40.00,14,7,17,0.00
2013-2-26,32,21,1,28,15,-6,87,78,62,0.00,40.00,27,15,35,0.00
2013-2-27,36,26,6,22,10,0,79,52,35,0.00,40.00,18,10,25,0.00
2013-2-28,40,24,6,21,8,-1,77,54,27,0.00,40.00,11,6,17,0.00